Time;durP1;ratioP1;P1;durP2;ratioP2;P2;SDS_P1;SDS_P2;PMS_P1;PMS_P2;Temp;Humidity;BMP_temperature;BMP_pressure;BME280_temperature;BME280_humidity;BME280_pressure;Samples;Min_cycle;Max_cycle;Signal;HPM_P1;HPM_P2
2021/07/28 00:01:56;;;;;;;10.35;6.97;;;;;;;35.93;26.53;94824.19;5057960;28;20045;-60
2021/07/28 00:04:23;;;;;;;9.77;7.20;;;;;;;36.38;25.85;94829.25;5045234;28;20057;-53
2021/07/28 00:06:50;;;;;;;9.48;6.68;;;;;;;36.51;25.70;94831.94;5037701;28;20444;-50
2021/07/28 00:09:17;;;;;;;10.93;7.32;;;;;;;36.57;25.91;94828.19;5052826;28;20052;-53
2021/07/28 00:11:47;;;;;;;11.02;6.53;;;;;;;36.60;25.45;94837.44;5052448;28;20045;-53
2021/07/28 00:14:14;;;;;;;10.77;7.37;;;;;;;36.14;26.07;94826.91;5037279;28;20514;-53
2021/07/28 00:16:41;;;;;;;10.00;6.97;;;;;;;36.13;26.47;94833.56;5046544;28;20303;-53
2021/07/28 00:19:31;;;;;;;9.00;7.03;;;;;;;36.26;26.03;94832.78;5056075;28;20044;-53
2021/07/28 00:24:44;;;;;;;7.40;6.60;;;;;;;36.21;25.81;94836.81;5046960;28;20056;-54
2021/07/28 00:27:11;;;;;;;11.10;6.60;;;;;;;36.27;26.12;94837.00;5036594;28;20049;-51
2021/07/28 00:29:38;;;;;;;13.10;6.85;;;;;;;36.36;25.88;94837.09;5046426;28;20057;-55
2021/07/28 00:32:05;;;;;;;11.27;7.10;;;;;;;36.35;25.60;94832.88;5054572;28;20048;-54
2021/07/28 00:34:33;;;;;;;10.05;7.15;;;;;;;36.02;26.18;94835.88;5036814;28;20041;-54
2021/07/28 00:37:00;;;;;;;7.45;6.65;;;;;;;36.01;25.94;94828.16;5036346;28;20472;-54
2021/07/28 00:39:27;;;;;;;9.88;6.30;;;;;;;36.04;26.08;94822.59;5054413;28;20416;-54
2021/07/28 00:41:54;;;;;;;10.73;7.00;;;;;;;35.99;26.22;94834.06;5042292;28;20090;-53
2021/07/28 00:44:21;;;;;;;9.25;6.30;;;;;;;36.12;26.30;94828.56;5037063;28;20041;-55
2021/07/28 00:46:48;;;;;;;11.20;7.15;;;;;;;35.85;26.40;94820.91;5046941;28;20060;-52
2021/07/28 00:49:15;;;;;;;9.93;6.43;;;;;;;35.97;26.46;94822.84;5053233;28;20052;-52
2021/07/28 00:51:42;;;;;;;15.52;7.43;;;;;;;35.85;26.28;94823.63;5056824;28;20044;-52
2021/07/28 00:54:09;;;;;;;10.90;6.90;;;;;;;35.93;26.13;94824.94;5043750;28;20049;-54
2021/07/28 00:56:37;;;;;;;13.05;6.97;;;;;;;35.78;26.62;94823.84;5049255;28;20045;-56
2021/07/28 00:59:04;;;;;;;10.40;6.70;;;;;;;35.75;26.88;94822.00;5049573;28;20037;-53
2021/07/28 01:01:31;;;;;;;9.88;6.80;;;;;;;35.50;26.89;94820.84;5038715;28;20045;-55
2021/07/28 01:03:59;;;;;;;7.70;6.68;;;;;;;35.60;27.11;94823.63;5039124;28;20045;-57
2021/07/28 01:06:26;;;;;;;8.63;6.88;;;;;;;35.27;27.45;94818.41;5056690;28;20041;-52
2021/07/28 01:08:54;;;;;;;8.00;6.78;;;;;;;35.96;26.34;94813.19;5056180;28;20053;-53
2021/07/28 01:11:26;;;;;;;10.48;6.72;;;;;;;35.91;26.48;94813.72;5056426;28;20363;-58
2021/07/28 01:13:55;;;;;;;10.75;7.28;;;;;;;35.63;26.76;94814.59;5056599;28;20049;-56
2021/07/28 01:16:24;;;;;;;10.52;7.28;;;;;;;35.53;26.95;94814.50;5055696;28;20045;-56
2021/07/28 01:18:52;;;;;;;8.73;6.93;;;;;;;35.57;26.99;94808.19;5055120;28;20064;-53
2021/07/28 01:21:20;;;;;;;9.82;6.32;;;;;;;35.78;26.87;94797.41;5036132;28;20041;-54
2021/07/28 01:23:48;;;;;;;9.55;6.47;;;;;;;35.52;27.14;94804.84;5036505;28;20045;-57
2021/07/28 01:26:16;;;;;;;13.73;7.63;;;;;;;35.23;27.47;94801.47;5036309;28;20384;-57
2021/07/28 01:28:43;;;;;;;10.75;7.22;;;;;;;35.58;27.08;94794.16;5045705;28;20056;-54
2021/07/28 01:31:13;;;;;;;11.38;7.22;;;;;;;35.06;27.60;94786.47;5054822;28;20045;-54
2021/07/28 01:33:45;;;;;;;10.25;6.78;;;;;;;35.49;27.26;94796.81;5056355;28;20057;-53
2021/07/28 01:36:18;;;;;;;10.75;6.80;;;;;;;35.48;27.11;94801.47;5055951;28;20048;-51
2021/07/28 01:38:46;;;;;;;9.45;7.00;;;;;;;35.58;26.88;94804.28;5055792;28;20052;-53
2021/07/28 01:41:13;;;;;;;10.35;7.22;;;;;;;35.53;27.00;94805.59;5055681;28;20060;-56
2021/07/28 01:43:42;;;;;;;9.75;6.97;;;;;;;35.46;26.99;94809.31;5055866;28;20352;-52
2021/07/28 01:46:09;;;;;;;8.90;6.72;;;;;;;35.37;27.24;94798.31;5053785;28;20049;-55
2021/07/28 01:48:36;;;;;;;10.50;6.88;;;;;;;35.22;27.42;94806.13;5055949;28;20091;-51
2021/07/28 01:51:03;;;;;;;11.45;7.32;;;;;;;35.37;27.12;94801.03;5055621;28;20466;-54
2021/07/28 01:53:31;;;;;;;12.57;7.43;;;;;;;35.33;27.16;94800.38;5055247;28;20041;-52
2021/07/28 01:55:59;;;;;;;10.20;7.15;;;;;;;35.52;26.77;94807.56;5055841;28;20383;-54
2021/07/28 01:58:26;;;;;;;9.85;6.90;;;;;;;35.32;27.18;94798.84;5054766;28;20055;-54
2021/07/28 02:00:53;;;;;;;11.88;7.68;;;;;;;35.24;27.24;94802.97;5055569;28;20356;-55
2021/07/28 02:03:20;;;;;;;12.10;7.55;;;;;;;35.08;27.51;94800.38;5054927;28;20059;-52
2021/07/28 02:05:49;;;;;;;9.65;7.30;;;;;;;35.16;27.45;94799.72;5055344;28;20045;-50
2021/07/28 02:08:17;;;;;;;9.02;6.97;;;;;;;34.90;27.83;94796.25;5055302;28;20048;-51
2021/07/28 02:10:47;;;;;;;11.32;7.75;;;;;;;34.83;27.87;94796.41;5055067;28;20044;-50
2021/07/28 02:13:15;;;;;;;9.02;7.18;;;;;;;34.72;28.06;94787.81;5036526;28;20045;-55
2021/07/28 02:15:42;;;;;;;10.43;7.07;;;;;;;35.08;27.65;94795.69;5051267;28;20045;-56
2021/07/28 02:18:10;;;;;;;9.73;6.78;;;;;;;34.97;27.56;94797.22;5054957;28;20040;-53
2021/07/28 02:20:37;;;;;;;10.15;7.28;;;;;;;35.35;27.02;94792.56;5055057;28;20049;-53
2021/07/28 02:23:04;;;;;;;10.88;7.40;;;;;;;35.11;27.33;94791.34;5055424;28;20398;-51
2021/07/28 02:25:32;;;;;;;11.15;6.90;;;;;;;34.71;28.15;94788.25;5054491;28;20052;-54
2021/07/28 02:27:59;;;;;;;8.95;7.18;;;;;;;34.83;27.78;94790.97;5054353;28;20045;-51
2021/07/28 02:30:26;;;;;;;13.50;8.18;;;;;;;35.05;27.29;94795.78;5053939;28;20037;-55
2021/07/28 02:32:54;;;;;;;12.20;7.40;;;;;;;34.77;28.17;94800.09;5055283;28;20051;-54
2021/07/28 02:35:21;;;;;;;11.02;7.30;;;;;;;34.90;27.75;94804.38;5053626;28;20060;-50
2021/07/28 02:37:48;;;;;;;10.90;7.35;;;;;;;34.79;27.89;94801.16;5054933;28;20045;-53
2021/07/28 02:40:20;;;;;;;12.80;7.57;;;;;;;35.28;27.07;94795.47;5054642;28;20355;-53
2021/07/28 02:42:47;;;;;;;11.63;7.20;;;;;;;34.97;27.51;94800.69;5054972;28;20060;-51
2021/07/28 02:45:14;;;;;;;10.88;7.47;;;;;;;34.88;27.78;94804.06;5054415;28;20059;-55
2021/07/28 02:47:42;;;;;;;10.13;7.55;;;;;;;34.77;27.82;94808.22;5053796;28;20056;-53
2021/07/28 02:50:09;;;;;;;10.80;7.70;;;;;;;34.84;28.00;94811.53;5054484;28;20049;-53
2021/07/28 02:52:36;;;;;;;11.85;8.10;;;;;;;34.88;27.65;94808.72;5054782;28;20069;-53
2021/07/28 02:55:07;;;;;;;8.65;7.40;;;;;;;34.80;27.83;94816.25;5054626;28;20450;-59
2021/07/28 02:57:38;;;;;;;12.25;8.10;;;;;;;34.63;27.84;94820.25;5054513;28;20051;-51
2021/07/28 03:00:06;;;;;;;12.13;8.38;;;;;;;34.86;27.80;94825.44;5054284;28;20049;-50
2021/07/28 03:02:34;;;;;;;14.43;7.90;;;;;;;34.86;27.66;94814.56;5054730;28;20048;-54
2021/07/28 03:05:01;;;;;;;14.70;7.88;;;;;;;34.95;27.56;94824.03;5054052;28;20055;-52
2021/07/28 03:07:28;;;;;;;12.77;7.93;;;;;;;34.44;28.41;94821.94;5054272;28;20087;-59
2021/07/28 03:09:56;;;;;;;14.07;8.25;;;;;;;34.46;28.50;94821.50;5053329;28;20051;-57
2021/07/28 03:12:23;;;;;;;12.70;7.70;;;;;;;34.78;27.85;94818.66;5053547;28;20075;-55
2021/07/28 03:14:50;;;;;;;13.98;8.07;;;;;;;34.86;27.83;94817.28;5052673;28;20056;-58
2021/07/28 03:17:17;;;;;;;11.25;7.97;;;;;;;34.42;28.41;94815.41;5053452;28;20056;-59
2021/07/28 03:19:44;;;;;;;13.82;8.25;;;;;;;34.85;27.61;94815.75;5054082;28;20049;-55
2021/07/28 03:22:12;;;;;;;12.20;8.30;;;;;;;34.59;28.17;94808.72;5054216;28;20048;-54
2021/07/28 03:24:39;;;;;;;16.50;8.80;;;;;;;34.73;27.99;94811.03;5054201;28;20045;-56
2021/07/28 03:27:06;;;;;;;14.15;9.05;;;;;;;34.54;28.01;94804.59;5053858;28;20048;-53
2021/07/28 03:29:33;;;;;;;12.55;7.95;;;;;;;34.60;28.04;94812.97;5053747;28;20049;-53
2021/07/28 03:32:00;;;;;;;15.68;8.70;;;;;;;34.44;28.19;94805.66;5054227;28;20056;-58
2021/07/28 03:34:27;;;;;;;13.30;8.55;;;;;;;34.62;27.99;94813.31;5054352;28;20084;-59
2021/07/28 03:36:54;;;;;;;14.43;8.77;;;;;;;34.69;28.11;94806.91;5053862;28;20055;-57
2021/07/28 03:39:24;;;;;;;10.43;7.88;;;;;;;34.72;27.87;94812.25;5053674;28;20071;-54
2021/07/28 03:41:51;;;;;;;14.82;8.52;;;;;;;34.95;27.52;94805.03;5054169;28;20097;-56
2021/07/28 03:44:18;;;;;;;12.38;8.63;;;;;;;34.64;27.96;94802.78;5054197;28;20040;-58
2021/07/28 03:46:45;;;;;;;14.88;8.43;;;;;;;34.93;27.52;94806.22;5053338;28;20444;-56
2021/07/28 03:49:12;;;;;;;11.95;8.27;;;;;;;34.90;27.37;94796.25;5052650;28;20059;-55
2021/07/28 03:51:39;;;;;;;12.43;8.25;;;;;;;35.05;27.41;94802.00;5053797;28;20052;-50
2021/07/28 03:54:06;;;;;;;11.32;7.60;;;;;;;35.20;27.11;94807.78;5054032;28;20087;-52
2021/07/28 03:56:33;;;;;;;11.63;8.13;;;;;;;35.15;27.22;94808.31;5053884;28;20427;-53
2021/07/28 03:59:00;;;;;;;10.65;8.00;;;;;;;35.01;27.74;94808.72;5054040;28;20443;-51
2021/07/28 04:01:27;;;;;;;13.63;8.20;;;;;;;34.90;27.70;94817.19;5053935;28;20057;-55
2021/07/28 04:03:54;;;;;;;11.73;8.35;;;;;;;35.27;27.39;94807.53;5054330;28;20056;-52
2021/07/28 04:06:22;;;;;;;9.75;7.75;;;;;;;35.13;27.59;94824.25;5053093;28;20041;-51
2021/07/28 04:08:49;;;;;;;11.85;7.85;;;;;;;35.33;27.26;94811.22;5052084;28;20048;-54
2021/07/28 04:11:16;;;;;;;12.80;7.90;;;;;;;34.88;27.96;94811.44;5052594;28;20041;-51
2021/07/28 04:13:43;;;;;;;13.02;8.70;;;;;;;35.08;27.77;94816.66;5053353;28;20044;-57
2021/07/28 04:16:10;;;;;;;10.48;7.80;;;;;;;35.51;27.53;94822.34;5051493;28;20451;-57
2021/07/28 04:18:37;;;;;;;10.55;7.68;;;;;;;35.48;27.38;94817.78;5052510;28;20053;-54
2021/07/28 04:21:04;;;;;;;9.00;7.60;;;;;;;35.62;27.11;94816.56;5034691;28;20057;-56
2021/07/28 04:23:31;;;;;;;12.77;7.93;;;;;;;34.78;28.30;94815.94;5040141;28;20044;-57
2021/07/28 04:25:59;;;;;;;12.85;9.05;;;;;;;34.76;28.29;94821.03;5050503;28;20049;-54
2021/07/28 04:28:26;;;;;;;11.63;7.88;;;;;;;34.69;28.64;94820.50;5043429;28;20041;-55
2021/07/28 04:30:54;;;;;;;11.63;8.50;;;;;;;34.60;28.98;94826.53;5056390;28;20037;-78
2021/07/28 04:33:21;;;;;;;12.57;8.38;;;;;;;34.96;28.55;94820.13;5056827;28;20060;-70
2021/07/28 04:35:48;;;;;;;15.15;9.13;;;;;;;35.52;27.63;94823.88;5041499;28;20095;-69
2021/07/28 04:38:15;;;;;;;12.60;7.93;;;;;;;35.70;26.77;94817.13;5052100;28;20045;-70
2021/07/28 04:40:42;;;;;;;12.68;8.50;;;;;;;35.66;27.29;94821.91;5042586;28;20482;-70
2021/07/28 04:43:10;;;;;;;11.10;8.18;;;;;;;36.00;26.82;94830.13;5036828;28;20053;-70
2021/07/28 04:45:39;;;;;;;11.70;7.57;;;;;;;36.96;25.69;94831.50;5038829;28;20440;-53
2021/07/28 04:48:06;;;;;;;14.55;8.32;;;;;;;36.99;24.91;94825.16;5056976;28;20391;-60
2021/07/28 04:50:33;;;;;;;10.70;7.43;;;;;;;37.09;24.36;94829.44;5057003;28;20083;-56
2021/07/28 04:53:01;;;;;;;9.02;7.47;;;;;;;37.44;24.71;94826.59;5049733;28;20479;-58
2021/07/28 04:55:28;;;;;;;12.73;8.05;;;;;;;36.81;25.28;94822.34;5037451;28;20049;-67
2021/07/28 04:57:56;;;;;;;13.23;7.90;;;;;;;36.62;26.09;94816.72;5056737;28;20460;-57
2021/07/28 05:00:23;;;;;;;10.25;7.50;;;;;;;36.92;25.39;94825.41;5056645;28;20063;-60
2021/07/28 05:02:50;;;;;;;12.15;7.40;;;;;;;36.63;25.09;94823.69;5056720;28;20049;-60
2021/07/28 05:05:17;;;;;;;10.88;7.10;;;;;;;36.84;25.60;94824.16;5056696;28;20052;-66
2021/07/28 05:07:44;;;;;;;11.48;7.50;;;;;;;36.36;26.31;94818.06;5056378;28;20056;-65
2021/07/28 05:10:11;;;;;;;12.40;8.25;;;;;;;36.31;25.36;94816.66;5056453;28;20049;-61
2021/07/28 05:12:38;;;;;;;15.43;7.80;;;;;;;36.26;25.50;94809.03;5055558;28;20045;-56
2021/07/28 05:15:06;;;;;;;12.70;8.20;;;;;;;36.22;25.50;94805.69;5047414;28;20045;-56
2021/07/28 05:17:33;;;;;;;12.82;7.90;;;;;;;36.54;25.19;94804.59;5053048;28;20072;-55
2021/07/28 05:20:02;;;;;;;13.90;7.97;;;;;;;36.58;25.11;94807.94;5056299;28;20079;-61
2021/07/28 05:22:29;;;;;;;12.85;7.40;;;;;;;36.16;25.47;94810.16;5056410;28;20044;-59
2021/07/28 05:24:56;;;;;;;13.23;7.50;;;;;;;36.43;25.05;94801.47;5056361;28;20053;-59
2021/07/28 05:27:23;;;;;;;11.32;7.78;;;;;;;36.49;25.46;94810.59;5055816;28;20045;-54
2021/07/28 05:29:50;;;;;;;11.98;7.75;;;;;;;37.08;24.54;94806.13;5055953;28;20071;-61
2021/07/28 05:32:18;;;;;;;13.15;8.18;;;;;;;37.00;24.51;94805.66;5055484;28;20367;-63
2021/07/28 05:34:45;;;;;;;13.07;8.30;;;;;;;36.70;25.31;94804.41;5056108;28;20071;-55
2021/07/28 05:37:12;;;;;;;13.18;7.85;;;;;;;37.08;24.92;94803.41;5055835;28;20045;-57
2021/07/28 05:39:39;;;;;;;10.45;7.72;;;;;;;37.09;24.82;94802.19;5055670;28;20660;-62
2021/07/28 05:42:06;;;;;;;15.18;8.52;;;;;;;37.19;24.67;94801.03;5055874;28;20044;-61
2021/07/28 05:44:33;;;;;;;19.80;8.32;;;;;;;37.29;24.90;94804.59;5055938;28;20052;-66
2021/07/28 05:47:00;;;;;;;12.90;7.75;;;;;;;37.20;25.14;94810.72;5055041;28;20056;-66
2021/07/28 05:49:28;;;;;;;9.38;7.45;;;;;;;37.17;25.19;94814.34;5055373;28;20060;-66
2021/07/28 05:51:55;;;;;;;18.48;8.27;;;;;;;37.46;24.67;94807.81;5055885;28;20394;-66
2021/07/28 05:54:22;;;;;;;10.43;7.72;;;;;;;37.50;24.29;94803.00;5055571;28;20060;-66
2021/07/28 05:56:50;;;;;;;13.48;8.50;;;;;;;37.50;24.65;94803.00;5055467;28;20040;-65
2021/07/28 05:59:17;;;;;;;12.82;8.40;;;;;;;37.84;24.17;94800.06;5047320;28;20048;-66
2021/07/28 06:01:45;;;;;;;13.70;8.43;;;;;;;37.68;24.27;94797.56;5054106;28;20056;-66
2021/07/28 06:04:12;;;;;;;10.55;7.78;;;;;;;37.83;24.20;94803.25;5055734;28;20057;-64
2021/07/28 06:06:39;;;;;;;14.73;8.85;;;;;;;37.90;24.24;94809.16;5055256;28;20051;-64
2021/07/28 06:09:06;;;;;;;16.83;9.18;;;;;;;37.99;23.77;94807.66;5055236;28;20390;-65
2021/07/28 06:11:33;;;;;;;14.00;8.75;;;;;;;38.14;24.17;94806.59;5055371;28;20044;-65
2021/07/28 06:14:00;;;;;;;11.90;8.13;;;;;;;38.13;24.08;94804.34;5044235;28;20041;-64
2021/07/28 06:16:27;;;;;;;10.55;8.73;;;;;;;37.96;24.54;94795.66;5042837;28;21143;-64
2021/07/28 06:18:54;;;;;;;15.18;8.88;;;;;;;38.16;24.61;94797.97;5055059;28;20045;-65
2021/07/28 06:21:21;;;;;;;13.40;8.82;;;;;;;38.23;24.33;94800.41;5055112;28;20061;-61
2021/07/28 06:23:48;;;;;;;12.43;8.65;;;;;;;38.33;24.59;94801.94;5055405;28;20049;-66
2021/07/28 06:26:16;;;;;;;11.50;8.48;;;;;;;38.62;23.40;94806.16;5054770;28;20060;-66
2021/07/28 06:28:43;;;;;;;13.02;8.75;;;;;;;38.51;23.78;94807.38;5055223;28;20049;-63
2021/07/28 06:31:10;;;;;;;12.13;8.50;;;;;;;38.81;23.91;94813.13;5053699;28;20057;-65
2021/07/28 06:33:37;;;;;;;11.38;8.23;;;;;;;38.59;23.70;94807.06;5038537;28;20656;-66
2021/07/28 06:36:04;;;;;;;10.98;8.30;;;;;;;38.84;23.64;94812.22;5037622;28;20340;-65
2021/07/28 06:38:32;;;;;;;12.95;8.38;;;;;;;38.88;22.97;94807.34;5055030;28;20053;-66
2021/07/28 06:40:59;;;;;;;10.27;7.60;;;;;;;38.96;23.16;94803.06;5053991;28;20749;-66
2021/07/28 06:43:26;;;;;;;12.73;7.80;;;;;;;39.10;23.07;94802.44;5054478;28;20045;-65
2021/07/28 06:46:00;;;;;;;10.95;7.40;;;;;;;39.34;22.89;94815.44;5048340;28;20041;-66
2021/07/28 06:48:27;;;;;;;14.52;8.35;;;;;;;39.44;22.69;94806.72;5055005;28;20068;-65
2021/07/28 06:50:54;;;;;;;15.70;8.45;;;;;;;39.70;22.34;94804.31;5054839;28;20041;-62
2021/07/28 06:53:21;;;;;;;8.75;7.15;;;;;;;39.58;22.43;94816.25;5054752;28;20041;-65
2021/07/28 06:55:52;;;;;;;12.07;8.27;;;;;;;39.78;22.19;94815.66;5054748;28;20359;-65
2021/07/28 06:58:20;;;;;;;10.18;7.88;;;;;;;39.73;22.22;94813.56;5054315;28;20049;-64
2021/07/28 07:00:47;;;;;;;11.80;8.05;;;;;;;39.82;22.04;94810.03;5052944;28;20360;-65
2021/07/28 07:03:14;;;;;;;11.15;7.93;;;;;;;40.42;22.18;94811.78;5054827;28;20060;-66
2021/07/28 07:05:42;;;;;;;12.43;8.50;;;;;;;40.76;21.41;94805.66;5054471;28;20781;-65
2021/07/28 07:08:12;;;;;;;12.48;8.77;;;;;;;40.25;21.88;94803.22;5054216;28;20052;-61
2021/07/28 07:10:39;;;;;;;17.48;8.77;;;;;;;40.73;21.50;94801.13;5054134;28;20363;-63
2021/07/28 07:13:06;;;;;;;13.43;8.80;;;;;;;40.43;21.44;94797.63;5054508;28;20045;-62
2021/07/28 07:15:34;;;;;;;14.68;8.40;;;;;;;40.43;21.59;94803.09;5053810;28;20052;-64
2021/07/28 07:18:01;;;;;;;13.93;7.90;;;;;;;41.00;20.98;94797.38;5054098;28;20049;-65
2021/07/28 07:20:28;;;;;;;14.32;7.97;;;;;;;41.04;20.86;94792.44;5054501;28;20068;-65
2021/07/28 07:22:55;;;;;;;11.63;8.20;;;;;;;41.06;20.68;94786.50;5054212;28;20052;-65
2021/07/28 07:25:22;;;;;;;14.23;8.20;;;;;;;41.30;20.06;94795.38;5042406;28;20057;-66
2021/07/28 07:27:49;;;;;;;13.77;8.02;;;;;;;41.19;20.26;94800.66;5049674;28;20056;-62
2021/07/28 07:30:16;;;;;;;11.57;8.05;;;;;;;41.23;20.29;94784.81;5054461;28;20049;-65
2021/07/28 07:32:43;;;;;;;14.63;8.00;;;;;;;41.18;20.05;94796.41;5054153;28;20041;-66
2021/07/28 07:35:11;;;;;;;16.05;8.63;;;;;;;41.56;20.20;94796.25;5053131;28;20057;-66
2021/07/28 07:37:38;;;;;;;14.40;8.23;;;;;;;41.54;20.21;94793.22;5052759;28;20055;-66
2021/07/28 07:40:05;;;;;;;12.80;8.15;;;;;;;41.55;20.18;94789.25;5051909;28;20049;-65
2021/07/28 07:42:32;;;;;;;12.93;7.90;;;;;;;41.89;19.39;94795.19;5054193;28;20048;-66
2021/07/28 07:45:00;;;;;;;9.73;7.45;;;;;;;41.79;19.65;94791.09;5054165;28;20071;-65
2021/07/28 07:47:27;;;;;;;11.85;9.07;;;;;;;41.91;19.04;94795.50;5053279;28;20060;-67
2021/07/28 07:49:54;;;;;;;11.68;8.30;;;;;;;42.48;19.09;94794.94;5054144;28;20067;-66
2021/07/28 07:52:21;;;;;;;10.02;7.35;;;;;;;42.29;18.82;94799.19;5041438;28;20436;-66
2021/07/28 07:54:48;;;;;;;10.70;7.60;;;;;;;42.28;18.69;94783.97;5034011;28;20136;-67
2021/07/28 07:57:15;;;;;;;11.43;7.65;;;;;;;42.42;19.17;94785.84;5046364;28;20048;-66
2021/07/28 07:59:42;;;;;;;13.52;7.90;;;;;;;42.67;18.80;94790.63;5057886;28;20048;-65
2021/07/28 08:02:09;;;;;;;12.52;7.20;;;;;;;42.48;18.80;94783.94;5057894;28;20060;-65
2021/07/28 08:04:36;;;;;;;10.05;7.45;;;;;;;42.51;18.09;94780.22;5057698;28;20052;-65
2021/07/28 08:07:03;;;;;;;16.70;7.93;;;;;;;42.15;18.54;94782.31;5057637;28;20056;-67
2021/07/28 08:09:30;;;;;;;14.05;8.05;;;;;;;42.55;18.81;94783.53;5057284;28;20055;-65
2021/07/28 08:11:57;;;;;;;11.63;8.93;;;;;;;42.42;18.80;94780.34;5057333;28;20056;-66
2021/07/28 08:14:26;;;;;;;12.50;7.93;;;;;;;42.67;18.58;94774.13;5056719;28;20045;-66
2021/07/28 08:16:53;;;;;;;14.25;8.43;;;;;;;42.63;19.04;94768.09;5056801;28;20383;-63
2021/07/28 08:19:20;;;;;;;14.77;7.80;;;;;;;42.74;18.71;94762.72;5057717;28;20075;-64
2021/07/28 08:21:48;;;;;;;13.00;8.15;;;;;;;42.97;18.74;94763.69;5057230;28;20045;-64
2021/07/28 08:24:16;;;;;;;12.55;7.75;;;;;;;42.88;18.81;94757.59;5057660;28;20363;-67
2021/07/28 08:26:44;;;;;;;12.75;7.97;;;;;;;43.24;18.41;94758.88;5055416;28;20355;-67
2021/07/28 08:29:11;;;;;;;14.40;7.75;;;;;;;43.10;18.55;94766.00;5057505;28;20045;-65
2021/07/28 08:31:38;;;;;;;14.50;8.15;;;;;;;43.42;17.93;94763.25;5056895;28;20355;-64
2021/07/28 08:34:25;;;;;;;16.02;8.48;;;;;;;43.04;18.24;94762.47;5056181;28;20036;-65
2021/07/28 08:37:05;;;;;;;16.15;8.70;;;;;;;42.82;18.56;94765.00;5056654;28;20049;-66
2021/07/28 08:39:32;;;;;;;10.90;7.80;;;;;;;43.44;18.54;94766.25;5057076;28;20048;-66
2021/07/28 08:42:05;;;;;;;12.63;7.88;;;;;;;43.38;18.00;94769.72;5057166;28;20056;-66
2021/07/28 08:44:37;;;;;;;16.90;8.95;;;;;;;43.34;17.71;94763.72;5057016;28;20387;-67
2021/07/28 08:47:05;;;;;;;13.18;8.50;;;;;;;43.25;18.13;94771.38;5054765;28;20060;-66
2021/07/28 08:49:33;;;;;;;13.05;7.60;;;;;;;43.42;17.21;94763.25;5056895;28;20052;-66
2021/07/28 08:52:00;;;;;;;12.70;8.27;;;;;;;43.62;17.18;94761.09;5056218;28;20037;-66
2021/07/28 08:54:27;;;;;;;12.25;8.43;;;;;;;43.51;17.46;94758.31;5037073;28;20053;-66
2021/07/28 08:56:54;;;;;;;12.90;8.30;;;;;;;43.37;17.61;94761.97;5052370;28;20037;-67
2021/07/28 08:59:25;;;;;;;14.55;8.10;;;;;;;43.57;17.64;94758.34;5056859;28;20044;-65
2021/07/28 09:01:53;;;;;;;14.75;8.48;;;;;;;43.49;17.41;94762.81;5055565;28;20371;-67
2021/07/28 09:04:20;;;;;;;13.98;7.85;;;;;;;43.91;17.23;94759.25;5056637;28;20048;-67
2021/07/28 09:06:48;;;;;;;12.80;7.93;;;;;;;43.83;16.98;94764.50;5056598;28;20059;-66
2021/07/28 09:09:15;;;;;;;13.85;7.50;;;;;;;43.90;16.65;94758.50;5056717;28;20057;-67
2021/07/28 09:11:59;;;;;;;9.98;7.35;;;;;;;43.87;16.85;94748.50;5056119;28;20052;-66
2021/07/28 09:14:35;;;;;;;13.02;7.75;;;;;;;44.33;16.78;94766.69;5056351;28;20055;-66
2021/07/28 09:17:18;;;;;;;9.95;8.07;;;;;;;44.20;16.69;94752.63;5055418;28;20051;-66
2021/07/28 09:19:47;;;;;;;16.50;11.13;;;;;;;44.28;16.73;94753.66;5056516;28;20080;-65
2021/07/28 09:22:16;;;;;;;16.75;9.20;;;;;;;44.41;16.45;94748.41;5056077;28;20080;-66
2021/07/28 09:24:44;;;;;;;12.50;8.13;;;;;;;44.17;16.35;94742.59;5055260;28;20056;-66
2021/07/28 09:27:45;;;;;;;12.00;7.93;;;;;;;44.10;16.65;94749.34;5056219;28;20079;-63
2021/07/28 09:30:19;;;;;;;13.48;8.38;;;;;;;44.32;16.26;94743.16;5055079;28;20057;-66
2021/07/28 09:33:07;;;;;;;12.85;8.48;;;;;;;44.13;16.31;94736.59;5054259;28;20040;-65
2021/07/28 09:35:49;;;;;;;11.07;7.95;;;;;;;44.35;16.38;94728.38;5055624;28;20064;-67
2021/07/28 09:38:48;;;;;;;11.05;7.55;;;;;;;44.26;16.21;94728.63;5056124;28;20432;-66
2021/07/28 09:41:19;;;;;;;13.70;8.80;;;;;;;44.29;16.18;94722.09;5055898;28;20045;-66
2021/07/28 09:43:56;;;;;;;15.07;8.07;;;;;;;44.32;16.41;94726.63;5055905;28;20053;-63
2021/07/28 09:46:26;;;;;;;13.13;7.22;;;;;;;44.37;15.80;94722.34;5053900;28;20059;-66
2021/07/28 09:48:54;;;;;;;12.98;7.75;;;;;;;44.23;15.70;94724.81;5056158;28;20049;-66
2021/07/28 09:51:27;;;;;;;14.05;8.15;;;;;;;44.06;16.08;94715.00;5055427;28;20057;-66
2021/07/28 09:54:03;;;;;;;12.15;7.85;;;;;;;44.31;15.70;94714.09;5055983;28;20037;-66
2021/07/28 09:56:49;;;;;;;13.57;10.75;;;;;;;44.50;15.81;94715.13;5055619;28;20056;-66
2021/07/28 09:59:17;;;;;;;12.82;8.18;;;;;;;44.58;15.66;94716.16;5055861;28;20333;-66
2021/07/28 10:01:46;;;;;;;10.73;8.32;;;;;;;43.94;15.88;94714.97;5055194;28;20459;-66
2021/07/28 10:04:14;;;;;;;10.52;8.70;;;;;;;44.14;15.79;94711.28;5055231;28;20072;-67
2021/07/28 10:06:49;;;;;;;13.57;7.90;;;;;;;44.62;15.63;94720.66;5053819;28;20044;-67
2021/07/28 10:09:19;;;;;;;14.43;8.57;;;;;;;44.54;15.47;94715.66;5054631;28;20055;-67
2021/07/28 10:11:47;;;;;;;13.05;8.38;;;;;;;44.62;15.42;94715.91;5055160;28;20044;-66
2021/07/28 10:14:19;;;;;;;9.15;7.18;;;;;;;44.79;15.60;94710.41;5055427;28;20051;-66
2021/07/28 10:16:47;;;;;;;12.68;7.47;;;;;;;44.53;15.32;94708.63;5054575;28;20048;-66
2021/07/28 10:19:15;;;;;;;12.68;7.50;;;;;;;44.65;15.36;94708.63;5054901;28;20056;-65
2021/07/28 10:21:42;;;;;;;11.80;8.07;;;;;;;44.71;15.71;94717.66;5054728;28;20048;-66
2021/07/28 10:24:11;;;;;;;13.70;8.55;;;;;;;44.59;15.32;94700.38;5055048;28;20049;-66
2021/07/28 10:26:48;;;;;;;13.50;8.15;;;;;;;44.86;15.73;94704.41;5053227;28;20049;-65
2021/07/28 10:29:16;;;;;;;11.30;7.93;;;;;;;44.58;15.43;94699.63;5054699;28;20351;-67
2021/07/28 10:31:51;;;;;;;11.90;8.35;;;;;;;44.67;15.45;94701.38;5054793;28;20152;-67
2021/07/28 10:34:28;;;;;;;11.25;7.65;;;;;;;44.89;15.28;94689.59;5054960;28;20047;-67
2021/07/28 10:37:02;;;;;;;11.88;8.60;;;;;;;44.91;15.19;94695.38;5054686;28;20055;-66
2021/07/28 10:39:35;;;;;;;14.10;7.43;;;;;;;44.37;15.20;94690.06;5054833;28;20041;-64
2021/07/28 10:42:04;;;;;;;11.57;8.02;;;;;;;44.38;15.44;94690.81;5054833;28;20049;-66
2021/07/28 10:44:32;;;;;;;15.10;9.75;;;;;;;44.45;15.48;94685.53;5054845;28;20455;-67
2021/07/28 10:47:05;;;;;;;12.07;9.10;;;;;;;44.69;15.43;94685.06;5053042;28;20063;-64
2021/07/28 10:49:35;;;;;;;25.80;18.20;;;;;;;44.86;15.22;94685.09;5054173;28;20045;-67
2021/07/28 10:52:13;;;;;;;14.73;9.95;;;;;;;44.74;15.52;94683.56;5054355;28;20055;-67
2021/07/28 10:54:47;;;;;;;13.32;8.88;;;;;;;45.10;14.83;94682.56;5054591;28;20340;-66
2021/07/28 10:57:33;;;;;;;11.70;8.13;;;;;;;44.66;15.37;94674.31;5054703;28;20048;-67
2021/07/28 11:00:01;;;;;;;13.57;8.60;;;;;;;44.86;15.42;94676.81;5055012;28;20052;-66
2021/07/28 11:02:53;;;;;;;13.55;7.80;;;;;;;44.92;15.17;94676.81;5053356;28;20478;-67
2021/07/28 11:05:23;;;;;;;15.68;8.15;;;;;;;44.49;14.92;94675.03;5054439;28;20060;-67
2021/07/28 11:08:05;;;;;;;12.88;7.70;;;;;;;44.76;15.07;94667.25;5054781;28;20363;-66
2021/07/28 11:10:55;;;;;;;12.65;7.75;;;;;;;44.65;14.58;94668.03;5054494;28;20359;-67
2021/07/28 11:13:23;;;;;;;11.13;7.65;;;;;;;44.66;14.53;94666.78;5054331;28;20045;-67
2021/07/28 11:15:55;;;;;;;12.52;7.03;;;;;;;44.90;14.19;94663.53;5054340;28;20052;-66
2021/07/28 11:18:38;;;;;;;13.40;7.65;;;;;;;44.72;14.39;94666.78;5054737;28;20052;-67
2021/07/28 11:21:16;;;;;;;12.05;7.05;;;;;;;44.38;14.63;94652.97;5053913;28;20056;-67
2021/07/28 11:23:51;;;;;;;12.07;6.90;;;;;;;44.72;14.69;94664.75;5054239;28;20057;-67
2021/07/28 11:26:20;;;;;;;13.85;8.25;;;;;;;44.79;15.14;94658.03;5054350;28;20498;-66
2021/07/28 11:28:49;;;;;;;10.60;7.10;;;;;;;44.88;14.64;94649.50;5054390;28;20051;-65
2021/07/28 11:31:22;;;;;;;14.18;7.65;;;;;;;44.63;14.55;94650.50;5055830;28;20052;-67
2021/07/28 11:33:49;;;;;;;13.30;7.65;;;;;;;44.78;14.60;94653.75;5057566;28;20048;-67
2021/07/28 11:36:19;;;;;;;11.70;7.35;;;;;;;44.80;14.77;94648.50;5058438;28;20045;-66
2021/07/28 11:38:46;;;;;;;13.60;6.95;;;;;;;44.89;14.74;94645.50;5058303;28;20048;-67